Time;durP1;ratioP1;P1;durP2;ratioP2;P2;SDS_P1;SDS_P2;PMS_P1;PMS_P2;Temp;Humidity;BMP_temperature;BMP_pressure;BME280_temperature;BME280_humidity;BME280_pressure;Samples;Min_cycle;Max_cycle;Signal;HPM_P1;HPM_P2
2021/10/10 00:01:46;;;;;;;19.27;11.82;;;3.20;88.70;;;;;;5114980;28;20527;-77
2021/10/10 00:04:12;;;;;;;17.10;10.95;;;3.10;89.90;;;;;;5099192;28;20027;-76
2021/10/10 00:06:37;;;;;;;19.58;10.68;;;3.00;90.80;;;;;;5114838;28;20047;-76
2021/10/10 00:09:04;;;;;;;18.15;10.77;;;3.00;91.60;;;;;;5097902;28;20521;-76
2021/10/10 00:11:30;;;;;;;24.60;11.23;;;3.00;92.20;;;;;;5099093;28;20012;-76
2021/10/10 00:13:56;;;;;;;20.75;10.90;;;3.00;92.30;;;;;;5099013;28;20032;-76
2021/10/10 00:16:22;;;;;;;15.30;10.88;;;3.00;92.30;;;;;;5114925;28;20023;-77
2021/10/10 00:18:48;;;;;;;18.05;9.90;;;3.00;92.40;;;;;;5095114;28;20028;-75
2021/10/10 00:21:14;;;;;;;20.08;11.52;;;3.00;92.40;;;;;;5094631;28;20473;-76
2021/10/10 00:23:39;;;;;;;19.45;10.77;;;3.00;92.80;;;;;;5093975;28;20031;-76
2021/10/10 00:26:05;;;;;;;23.45;12.48;;;3.00;91.70;;;;;;5095876;28;20466;-76
2021/10/10 00:28:31;;;;;;;18.77;11.10;;;3.00;91.60;;;;;;5111630;28;20031;-76
2021/10/10 00:30:57;;;;;;;19.17;11.02;;;3.00;91.50;;;;;;5111444;28;20020;-76
2021/10/10 00:33:24;;;;;;;24.90;11.50;;;3.10;91.50;;;;;;5111265;28;20020;-76
2021/10/10 00:35:49;;;;;;;24.52;11.43;;;3.10;91.60;;;;;;5095534;28;20023;-76
2021/10/10 00:38:15;;;;;;;17.83;11.43;;;3.00;91.50;;;;;;5095621;28;20020;-76
2021/10/10 00:40:41;;;;;;;18.23;12.10;;;3.00;91.60;;;;;;5111126;28;20020;-76
2021/10/10 00:43:07;;;;;;;21.38;11.63;;;3.00;91.80;;;;;;5095474;28;20028;-76
2021/10/10 00:45:33;;;;;;;24.13;11.82;;;3.00;92.00;;;;;;5095391;28;20058;-76
2021/10/10 00:48:00;;;;;;;22.17;11.57;;;3.00;92.50;;;;;;5095375;28;20020;-76
2021/10/10 00:50:27;;;;;;;19.35;11.52;;;2.90;93.00;;;;;;5110911;28;20065;-76
2021/10/10 00:52:53;;;;;;;17.83;10.80;;;2.90;93.50;;;;;;5107397;28;20025;-76
2021/10/10 00:55:21;;;;;;;18.35;11.30;;;2.90;93.80;;;;;;5073580;28;20028;-76
2021/10/10 00:57:49;;;;;;;18.08;11.68;;;2.90;94.00;;;;;;5073531;28;20024;-76
2021/10/10 01:00:16;;;;;;;21.08;12.10;;;2.80;94.10;;;;;;5073626;28;20394;-76
2021/10/10 01:02:43;;;;;;;23.77;11.13;;;2.80;94.20;;;;;;5074760;28;20032;-76
2021/10/10 01:05:10;;;;;;;16.98;11.15;;;2.90;94.00;;;;;;5073525;28;20394;-76
2021/10/10 01:07:36;;;;;;;21.15;10.57;;;2.90;93.60;;;;;;5074703;28;20590;-76
2021/10/10 01:10:03;;;;;;;22.05;12.55;;;2.90;93.30;;;;;;5073219;28;20533;-76
2021/10/10 01:12:29;;;;;;;20.55;11.13;;;2.90;93.20;;;;;;5073381;28;20121;-77
2021/10/10 01:14:55;;;;;;;20.98;12.15;;;3.00;93.00;;;;;;5074473;28;20093;-76
2021/10/10 01:17:24;;;;;;;19.77;11.02;;;2.90;93.40;;;;;;5074578;28;20020;-76
2021/10/10 01:19:51;;;;;;;22.23;11.98;;;3.00;93.40;;;;;;5091022;28;20020;-76
2021/10/10 01:22:17;;;;;;;24.17;12.18;;;2.90;93.60;;;;;;5087727;28;20016;-76
2021/10/10 01:24:42;;;;;;;18.98;11.02;;;2.90;93.70;;;;;;5072971;28;20020;-77
2021/10/10 01:27:08;;;;;;;21.75;12.20;;;2.90;94.10;;;;;;5073167;28;20034;-76
2021/10/10 01:29:34;;;;;;;23.33;12.55;;;2.80;94.80;;;;;;5072201;28;20055;-76
2021/10/10 01:31:59;;;;;;;20.23;11.18;;;2.80;95.10;;;;;;5073332;28;20031;-76
2021/10/10 01:34:25;;;;;;;20.05;12.68;;;2.80;96.50;;;;;;5072745;28;20067;-76
2021/10/10 01:36:51;;;;;;;22.77;12.30;;;2.80;95.30;;;;;;5072820;28;20058;-76
2021/10/10 01:39:16;;;;;;;18.08;11.52;;;2.80;95.40;;;;;;5074053;28;20016;-76
2021/10/10 01:41:42;;;;;;;20.20;11.52;;;2.80;95.30;;;;;;5072725;28;20027;-76
2021/10/10 01:44:15;;;;;;;23.80;13.57;;;2.80;95.10;;;;;;5074023;28;20482;-76
2021/10/10 01:46:42;;;;;;;24.40;11.70;;;2.80;94.90;;;;;;5072552;28;20031;-76
2021/10/10 01:49:08;;;;;;;19.33;11.00;;;2.80;95.20;;;;;;5074007;28;20055;-76
2021/10/10 01:51:35;;;;;;;19.38;11.80;;;2.80;94.90;;;;;;5078768;28;20020;-76
2021/10/10 01:54:01;;;;;;;22.98;13.50;;;2.70;95.00;;;;;;5090981;28;20500;-75
2021/10/10 01:56:30;;;;;;;23.55;12.13;;;2.70;95.50;;;;;;5094000;28;20032;-77
2021/10/10 01:58:56;;;;;;;25.33;13.13;;;2.70;95.90;;;;;;5094283;28;20028;-76
2021/10/10 02:01:22;;;;;;;19.70;12.30;;;2.70;95.60;;;;;;5094004;28;20028;-76
2021/10/10 02:03:47;;;;;;;23.27;12.80;;;2.70;95.10;;;;;;5093783;28;20087;-76
2021/10/10 02:06:13;;;;;;;24.40;12.02;;;2.70;95.10;;;;;;5092649;28;20024;-76
2021/10/10 02:08:39;;;;;;;20.42;11.77;;;2.70;94.70;;;;;;5092429;28;20028;-76
2021/10/10 02:11:04;;;;;;;22.65;12.55;;;2.60;94.80;;;;;;5092539;28;20020;-77
2021/10/10 02:13:30;;;;;;;21.42;12.00;;;2.60;94.60;;;;;;5093631;28;20024;-76
2021/10/10 02:15:57;;;;;;;23.00;11.85;;;2.60;94.30;;;;;;5092467;28;20045;-76
2021/10/10 02:18:23;;;;;;;25.30;12.40;;;2.60;95.10;;;;;;5078085;28;20035;-76
2021/10/10 02:20:49;;;;;;;20.95;11.00;;;2.60;93.80;;;;;;5072010;28;20501;-76
2021/10/10 02:23:14;;;;;;;21.27;12.73;;;2.60;93.20;;;;;;5073354;28;20026;-76
2021/10/10 02:25:40;;;;;;;25.02;13.65;;;2.60;93.00;;;;;;5071919;28;20104;-76
2021/10/10 02:28:06;;;;;;;19.10;11.35;;;2.60;93.10;;;;;;5072930;28;20019;-75
2021/10/10 02:30:31;;;;;;;19.65;11.93;;;2.60;93.90;;;;;;5071827;28;20025;-76
2021/10/10 02:32:57;;;;;;;21.17;12.82;;;2.50;93.90;;;;;;5071884;28;20385;-76
2021/10/10 02:35:23;;;;;;;19.25;12.38;;;2.50;94.10;;;;;;5071734;28;20449;-76
2021/10/10 02:37:48;;;;;;;22.55;13.00;;;2.50;94.10;;;;;;5073238;28;20473;-76
2021/10/10 02:40:14;;;;;;;22.10;11.65;;;2.50;94.40;;;;;;5071345;28;20025;-75
2021/10/10 02:42:40;;;;;;;20.45;12.32;;;2.50;94.90;;;;;;5071647;28;20111;-76
2021/10/10 02:45:06;;;;;;;22.27;11.13;;;2.40;94.60;;;;;;5071724;28;20021;-75
2021/10/10 02:47:32;;;;;;;20.75;12.15;;;2.40;94.10;;;;;;5071722;28;20079;-76
2021/10/10 02:49:58;;;;;;;27.40;12.55;;;2.40;94.10;;;;;;5072910;28;20411;-76
2021/10/10 02:52:23;;;;;;;24.30;11.68;;;2.40;93.90;;;;;;5072923;28;20103;-76
2021/10/10 02:54:50;;;;;;;28.48;12.40;;;2.40;93.70;;;;;;5071504;28;20401;-76
2021/10/10 02:57:16;;;;;;;19.63;11.45;;;2.40;93.60;;;;;;5071628;28;20032;-76
2021/10/10 02:59:42;;;;;;;23.98;12.23;;;2.40;93.10;;;;;;5071394;28;20039;-76
2021/10/10 03:02:07;;;;;;;22.88;12.70;;;2.40;93.20;;;;;;5076912;28;20020;-76
2021/10/10 03:04:33;;;;;;;23.25;13.90;;;2.40;93.30;;;;;;5091744;28;20369;-76
2021/10/10 03:06:59;;;;;;;27.27;15.07;;;2.30;95.00;;;;;;5071281;28;20036;-76
2021/10/10 03:09:25;;;;;;;19.63;13.93;;;2.30;95.40;;;;;;5072684;28;20048;-76
2021/10/10 03:11:50;;;;;;;23.88;12.20;;;2.30;96.00;;;;;;5071346;28;20020;-76
2021/10/10 03:14:16;;;;;;;22.10;11.80;;;2.20;96.60;;;;;;5071334;28;20543;-76
2021/10/10 03:16:41;;;;;;;23.55;12.93;;;2.30;96.50;;;;;;5071425;28;20416;-77
2021/10/10 03:19:07;;;;;;;28.30;13.02;;;2.20;96.10;;;;;;5072816;28;20044;-76
2021/10/10 03:21:33;;;;;;;24.17;14.48;;;2.10;96.70;;;;;;5071398;28;20021;-76
2021/10/10 03:23:58;;;;;;;26.00;13.77;;;2.00;97.60;;;;;;5085504;28;20035;-76
2021/10/10 03:26:24;;;;;;;27.90;14.07;;;2.00;98.50;;;;;;5091517;28;20016;-76
2021/10/10 03:28:50;;;;;;;22.05;11.80;;;2.00;99.30;;;;;;5092732;28;20149;-76
2021/10/10 03:31:16;;;;;;;26.63;13.32;;;2.00;99.90;;;;;;5091586;28;20016;-77
2021/10/10 03:33:41;;;;;;;23.13;12.73;;;1.90;99.90;;;;;;5091366;28;20114;-75
2021/10/10 03:36:07;;;;;;;22.10;13.15;;;1.90;99.90;;;;;;5092773;28;20028;-76
2021/10/10 03:38:33;;;;;;;24.85;13.15;;;1.90;99.20;;;;;;5084974;28;20029;-76
2021/10/10 03:40:58;;;;;;;26.35;12.25;;;2.00;99.20;;;;;;5072517;28;20025;-75
2021/10/10 03:43:24;;;;;;;22.10;11.27;;;2.10;97.70;;;;;;5072407;28;20085;-76
2021/10/10 03:45:50;;;;;;;25.10;13.43;;;2.10;97.40;;;;;;5072933;28;20029;-76
2021/10/10 03:48:15;;;;;;;22.38;11.43;;;2.10;97.20;;;;;;5092597;28;20047;-76
2021/10/10 03:50:41;;;;;;;20.92;11.57;;;2.10;96.10;;;;;;5091289;28;20070;-76
2021/10/10 03:53:06;;;;;;;19.65;11.55;;;2.10;95.80;;;;;;5092983;28;20020;-76
2021/10/10 03:55:36;;;;;;;22.02;11.73;;;2.10;95.70;;;;;;5095020;28;20417;-77
2021/10/10 03:58:03;;;;;;;24.02;10.60;;;2.10;94.80;;;;;;5094958;28;20066;-76
2021/10/10 04:00:30;;;;;;;19.80;12.52;;;2.20;94.80;;;;;;5094961;28;20555;-75
2021/10/10 04:02:58;;;;;;;19.40;10.98;;;2.20;93.80;;;;;;5095284;28;20111;-76
2021/10/10 04:05:46;;;;;;;21.65;11.65;;;2.30;93.70;;;;;;5096162;28;20016;-76
2021/10/10 04:08:09;;;;;;;24.85;11.98;;;2.20;93.10;;;;;;5094998;28;20505;-76
2021/10/10 04:10:35;;;;;;;21.08;13.23;;;2.30;92.70;;;;;;5111786;28;20057;-77
2021/10/10 04:13:02;;;;;;;28.05;12.35;;;2.30;92.90;;;;;;5096090;28;20020;-77
2021/10/10 04:15:28;;;;;;;24.42;12.23;;;2.30;91.60;;;;;;5111598;28;20035;-75
2021/10/10 04:17:54;;;;;;;21.52;11.02;;;2.30;91.20;;;;;;5111639;28;20016;-76
2021/10/10 04:20:20;;;;;;;21.63;11.48;;;2.40;91.00;;;;;;5095897;28;20100;-76
2021/10/10 04:22:46;;;;;;;23.58;10.80;;;2.40;90.50;;;;;;5111571;28;20052;-76
2021/10/10 04:25:12;;;;;;;23.42;13.77;;;2.40;90.40;;;;;;5111505;28;20020;-76
2021/10/10 04:27:38;;;;;;;21.17;11.70;;;2.40;89.90;;;;;;5110856;28;20027;-76
2021/10/10 04:30:06;;;;;;;24.10;11.52;;;2.40;89.50;;;;;;5094716;28;20028;-76
2021/10/10 04:32:32;;;;;;;23.05;12.07;;;2.40;89.30;;;;;;5110328;28;20474;-76
2021/10/10 04:34:57;;;;;;;18.10;10.38;;;2.50;90.00;;;;;;5094518;28;20040;-76
2021/10/10 04:37:23;;;;;;;20.45;12.13;;;2.50;89.90;;;;;;5092892;28;20059;-76
2021/10/10 04:39:49;;;;;;;19.90;11.80;;;2.50;89.50;;;;;;5094032;28;20026;-76
2021/10/10 04:42:14;;;;;;;22.00;11.80;;;2.50;89.00;;;;;;5093267;28;20508;-76
2021/10/10 04:44:40;;;;;;;18.58;11.52;;;2.50;88.60;;;;;;5093106;28;20453;-76
2021/10/10 04:47:06;;;;;;;24.80;12.00;;;2.50;88.20;;;;;;5095328;28;20025;-77
2021/10/10 04:49:32;;;;;;;19.60;10.68;;;2.50;87.70;;;;;;5093566;28;20115;-76
2021/10/10 04:51:58;;;;;;;28.77;12.55;;;2.50;87.50;;;;;;5094641;28;20032;-77
2021/10/10 04:54:24;;;;;;;18.60;11.18;;;2.50;87.10;;;;;;5094955;28;20040;-76
2021/10/10 04:56:49;;;;;;;18.48;9.80;;;2.50;86.70;;;;;;5094753;28;20519;-76
2021/10/10 04:59:15;;;;;;;20.30;11.38;;;2.50;86.60;;;;;;5094966;28;20024;-76
2021/10/10 05:01:41;;;;;;;20.63;12.10;;;2.50;86.40;;;;;;5093833;28;20410;-76
2021/10/10 05:04:06;;;;;;;19.67;10.45;;;2.50;86.40;;;;;;5094821;28;20028;-76
2021/10/10 05:06:32;;;;;;;20.33;10.80;;;2.50;86.90;;;;;;5094163;28;20032;-77
2021/10/10 05:08:57;;;;;;;24.63;13.02;;;2.50;87.40;;;;;;5110746;28;20028;-76
2021/10/10 05:11:23;;;;;;;20.08;11.82;;;2.50;87.70;;;;;;5110659;28;20473;-76
2021/10/10 05:13:49;;;;;;;18.83;11.73;;;2.50;88.80;;;;;;5094798;28;20028;-76
2021/10/10 05:16:14;;;;;;;23.98;13.68;;;2.40;90.40;;;;;;5094959;28;20435;-76
2021/10/10 05:18:40;;;;;;;20.52;12.57;;;2.30;91.70;;;;;;5110557;28;20423;-76
2021/10/10 05:21:05;;;;;;;25.02;13.68;;;2.20;93.30;;;;;;5094838;28;20059;-77
2021/10/10 05:23:31;;;;;;;21.08;12.80;;;2.10;95.10;;;;;;5110355;28;20031;-75
2021/10/10 05:25:58;;;;;;;28.00;14.93;;;2.00;96.30;;;;;;5094608;28;20024;-76
2021/10/10 05:28:24;;;;;;;23.38;12.85;;;2.00;98.00;;;;;;5094414;28;20016;-76
2021/10/10 05:30:51;;;;;;;31.10;14.80;;;1.90;98.80;;;;;;5110269;28;20025;-75
2021/10/10 05:33:18;;;;;;;33.63;15.65;;;2.00;98.70;;;;;;5110149;28;20020;-76
2021/10/10 05:35:43;;;;;;;30.15;15.98;;;2.00;97.70;;;;;;5098090;28;20028;-76
2021/10/10 05:38:09;;;;;;;30.42;15.40;;;2.10;96.10;;;;;;5072943;28;20029;-76
2021/10/10 05:40:35;;;;;;;26.83;13.23;;;2.30;93.40;;;;;;5071424;28;20066;-76
2021/10/10 05:43:00;;;;;;;24.23;13.45;;;2.40;91.60;;;;;;5071815;28;20059;-76
2021/10/10 05:45:26;;;;;;;23.33;12.57;;;2.50;90.30;;;;;;5073841;28;20090;-77
2021/10/10 05:47:52;;;;;;;23.67;12.95;;;2.60;89.60;;;;;;5071910;28;20079;-76
2021/10/10 05:50:17;;;;;;;25.33;12.07;;;2.70;88.40;;;;;;5072418;28;20025;-76
2021/10/10 05:52:43;;;;;;;23.45;11.82;;;2.80;87.20;;;;;;5072280;28;20115;-77
2021/10/10 05:55:10;;;;;;;22.70;11.88;;;2.90;87.40;;;;;;5073145;28;20041;-76
2021/10/10 05:57:45;;;;;;;25.30;10.98;;;2.90;86.80;;;;;;5072255;28;20087;-75
2021/10/10 06:00:13;;;;;;;27.92;12.93;;;3.00;86.00;;;;;;5072258;28;20432;-76
2021/10/10 06:02:40;;;;;;;20.92;13.07;;;3.10;85.40;;;;;;5072115;28;20021;-75
2021/10/10 06:05:06;;;;;;;23.27;12.15;;;3.10;85.20;;;;;;5075770;28;20032;-76
2021/10/10 06:07:32;;;;;;;20.60;11.77;;;3.20;85.30;;;;;;5085782;28;20046;-76
2021/10/10 06:09:58;;;;;;;24.83;12.23;;;3.20;85.30;;;;;;5093796;28;20028;-76
2021/10/10 06:12:23;;;;;;;24.55;13.20;;;3.20;84.80;;;;;;5093152;28;20474;-76
2021/10/10 06:14:51;;;;;;;27.40;15.25;;;3.30;85.20;;;;;;5108448;28;20131;-76
2021/10/10 06:17:17;;;;;;;21.55;11.55;;;3.30;85.40;;;;;;5093492;28;20054;-75
2021/10/10 06:19:45;;;;;;;35.00;16.27;;;3.40;86.30;;;;;;5092269;28;20039;-76
2021/10/10 06:22:11;;;;;;;30.65;15.85;;;3.40;85.30;;;;;;5092338;28;20024;-76
2021/10/10 06:24:37;;;;;;;21.95;13.52;;;3.50;85.80;;;;;;5092155;28;20043;-76
2021/10/10 06:27:03;;;;;;;25.15;13.18;;;3.50;84.80;;;;;;5092328;28;20103;-76
2021/10/10 06:29:29;;;;;;;24.92;14.40;;;3.60;84.40;;;;;;5093431;28;20017;-76
2021/10/10 06:31:55;;;;;;;26.42;13.68;;;3.70;85.00;;;;;;5091515;28;20031;-76
2021/10/10 06:34:21;;;;;;;22.48;13.52;;;3.70;83.90;;;;;;5092029;28;20032;-76
2021/10/10 06:36:47;;;;;;;19.77;12.63;;;3.70;83.10;;;;;;5093277;28;20016;-76
2021/10/10 06:39:13;;;;;;;24.52;13.65;;;3.80;82.10;;;;;;5093406;28;20023;-76
2021/10/10 06:41:38;;;;;;;24.20;13.05;;;3.90;81.70;;;;;;5092009;28;20028;-76
2021/10/10 06:44:04;;;;;;;27.52;13.38;;;3.90;80.00;;;;;;5091914;28;20024;-75
2021/10/10 06:46:30;;;;;;;27.95;15.07;;;4.00;79.70;;;;;;5091514;28;20028;-76
2021/10/10 06:48:55;;;;;;;28.13;14.70;;;4.10;80.50;;;;;;5090419;28;20499;-76
2021/10/10 06:51:21;;;;;;;26.60;14.90;;;4.20;79.40;;;;;;5080115;28;20016;-76
2021/10/10 06:53:47;;;;;;;25.00;14.25;;;4.30;80.00;;;;;;5083219;28;20066;-76
2021/10/10 06:56:12;;;;;;;21.38;12.80;;;4.30;79.10;;;;;;5082021;28;20021;-77
2021/10/10 06:58:38;;;;;;;25.02;13.40;;;4.40;79.20;;;;;;5082950;28;20063;-76
2021/10/10 07:01:03;;;;;;;28.45;15.18;;;4.40;79.10;;;;;;5079916;28;20024;-77
2021/10/10 07:03:29;;;;;;;25.15;12.95;;;4.50;78.70;;;;;;5082559;28;20028;-76
2021/10/10 07:05:55;;;;;;;30.83;16.15;;;4.60;77.80;;;;;;5086670;28;20020;-76
2021/10/10 07:08:20;;;;;;;28.33;14.35;;;4.60;77.60;;;;;;5091505;28;20066;-76
2021/10/10 07:10:46;;;;;;;30.13;15.88;;;4.70;75.00;;;;;;5075220;28;20028;-76
2021/10/10 07:13:12;;;;;;;24.33;14.32;;;4.80;75.10;;;;;;5071244;28;20025;-76
2021/10/10 07:15:37;;;;;;;31.38;14.55;;;4.90;74.00;;;;;;5072491;28;20029;-76
2021/10/10 07:18:05;;;;;;;27.10;14.30;;;5.00;74.00;;;;;;5071839;28;20024;-76
2021/10/10 07:23:45;;;;;;;23.67;14.20;;;5.20;70.80;;;;;;5082686;28;20033;-76
2021/10/10 07:25:59;;;;;;;33.13;15.80;;;5.30;69.90;;;;;;5072158;28;20033;-76
2021/10/10 07:28:25;;;;;;;31.88;15.90;;;5.40;69.20;;;;;;5076241;28;20031;-76
2021/10/10 07:30:51;;;;;;;32.80;18.88;;;5.50;69.60;;;;;;5078871;28;20020;-76
2021/10/10 07:33:18;;;;;;;27.35;14.90;;;5.60;68.90;;;;;;5079893;28;20027;-76
2021/10/10 07:35:44;;;;;;;33.53;16.30;;;5.70;68.00;;;;;;5087038;28;20062;-76
2021/10/10 07:38:10;;;;;;;34.97;14.60;;;5.80;68.10;;;;;;5084370;28;20077;-76
2021/10/10 07:40:35;;;;;;;27.52;15.98;;;5.90;68.30;;;;;;5082163;28;20082;-76
2021/10/10 07:43:01;;;;;;;28.63;15.65;;;6.00;66.50;;;;;;5084694;28;20023;-77
2021/10/10 07:45:27;;;;;;;24.45;15.00;;;6.10;67.60;;;;;;5076487;28;20031;-76
2021/10/10 07:47:55;;;;;;;29.60;14.95;;;6.20;67.00;;;;;;5080131;28;20511;-76
2021/10/10 07:50:22;;;;;;;33.90;15.77;;;6.30;66.90;;;;;;5081326;28;20804;-76
2021/10/10 07:52:48;;;;;;;31.45;17.00;;;6.40;65.80;;;;;;5079670;28;20109;-75
2021/10/10 07:55:15;;;;;;;28.23;15.95;;;6.50;66.80;;;;;;5080738;28;20032;-75
2021/10/10 07:57:40;;;;;;;30.17;16.33;;;6.40;64.80;;;;;;5081611;28;20466;-75
2021/10/10 08:00:08;;;;;;;29.48;15.02;;;6.40;65.70;;;;;;5083770;28;20084;-76
2021/10/10 08:02:55;;;;;;;29.17;15.57;;;6.60;66.00;;;;;;5084409;28;20024;-76
2021/10/10 08:05:22;;;;;;;25.35;15.45;;;6.70;65.20;;;;;;5077208;28;20024;-76
2021/10/10 08:07:49;;;;;;;29.02;14.77;;;6.80;64.70;;;;;;5084063;28;20047;-75
2021/10/10 08:10:15;;;;;;;26.85;14.60;;;6.90;64.50;;;;;;5082047;28;20027;-75
2021/10/10 08:12:41;;;;;;;32.35;15.10;;;6.90;63.40;;;;;;5080258;28;20013;-76
2021/10/10 08:15:08;;;;;;;29.90;15.05;;;6.80;62.70;;;;;;5082441;28;20035;-75
2021/10/10 08:17:33;;;;;;;30.45;14.70;;;7.00;63.50;;;;;;5086124;28;20024;-75
2021/10/10 08:19:59;;;;;;;30.80;16.55;;;7.10;63.70;;;;;;5085723;28;20084;-75
2021/10/10 08:22:24;;;;;;;31.48;16.10;;;7.10;62.60;;;;;;5082741;28;20024;-76
2021/10/10 08:24:50;;;;;;;28.10;14.52;;;7.10;62.60;;;;;;5085437;28;20378;-76
2021/10/10 08:27:16;;;;;;;25.13;13.63;;;7.20;61.80;;;;;;5077974;28;20020;-76
2021/10/10 08:29:41;;;;;;;26.48;14.32;;;7.30;62.60;;;;;;5083094;28;20013;-76
2021/10/10 08:32:07;;;;;;;23.42;12.82;;;7.30;60.60;;;;;;5089787;28;20020;-76
2021/10/10 08:34:36;;;;;;;27.27;15.27;;;7.50;61.10;;;;;;5086591;28;20036;-76
2021/10/10 08:37:05;;;;;;;25.15;13.75;;;7.60;61.60;;;;;;5080933;28;20016;-75
2021/10/10 08:39:30;;;;;;;25.27;13.57;;;7.60;60.00;;;;;;5088033;28;20024;-74
2021/10/10 08:41:57;;;;;;;30.25;14.82;;;7.70;61.10;;;;;;5079799;28;20503;-74
2021/10/10 08:44:31;;;;;;;32.22;13.65;;;7.80;61.10;;;;;;5078567;28;20036;-74
2021/10/10 08:47:06;;;;;;;22.77;12.95;;;7.80;59.40;;;;;;5078869;28;20095;-74
2021/10/10 08:49:32;;;;;;;28.75;14.15;;;7.80;59.10;;;;;;5087849;28;20027;-74
2021/10/10 08:52:03;;;;;;;32.75;13.38;;;7.70;59.70;;;;;;5085790;28;20027;-74
2021/10/10 08:54:28;;;;;;;24.08;13.23;;;7.70;59.60;;;;;;5083648;28;20032;-74
2021/10/10 08:56:55;;;;;;;29.88;15.05;;;7.70;59.90;;;;;;5079385;28;20378;-74
2021/10/10 08:59:22;;;;;;;27.15;12.50;;;7.80;60.30;;;;;;5083064;28;20032;-74
2021/10/10 09:01:49;;;;;;;26.73;14.27;;;7.70;59.70;;;;;;5084974;28;20058;-74
2021/10/10 09:04:15;;;;;;;28.63;13.98;;;7.80;59.70;;;;;;5084359;28;20442;-74
2021/10/10 09:06:40;;;;;;;24.42;13.70;;;7.90;59.60;;;;;;5080524;28;20054;-74
2021/10/10 09:09:25;;;;;;;28.80;14.68;;;8.00;58.90;;;;;;5078237;28;20012;-72
2021/10/10 09:11:51;;;;;;;28.67;14.82;;;8.20;59.60;;;;;;5079732;28;20017;-72
2021/10/10 09:14:16;;;;;;;24.45;12.95;;;8.20;59.50;;;;;;5080658;28;20390;-72
2021/10/10 09:16:42;;;;;;;23.98;13.32;;;8.40;59.00;;;;;;5074749;28;20028;-73
2021/10/10 09:19:28;;;;;;;19.05;10.70;;;8.50;57.40;;;;;;5084735;28;20052;-72
2021/10/10 09:22:02;;;;;;;23.73;12.82;;;8.60;56.50;;;;;;5083808;28;20537;-73
2021/10/10 09:24:28;;;;;;;20.60;11.65;;;8.80;56.60;;;;;;5083067;28;20036;-74
2021/10/10 09:26:54;;;;;;;19.27;10.60;;;8.90;56.50;;;;;;5083389;28;20389;-73
2021/10/10 09:29:32;;;;;;;25.27;11.57;;;9.00;56.20;;;;;;5082885;28;20021;-72
2021/10/10 09:32:14;;;;;;;21.92;11.63;;;9.20;56.60;;;;;;5075158;28;20052;-74
2021/10/10 09:34:41;;;;;;;22.58;10.73;;;9.30;55.60;;;;;;5086142;28;20043;-73
2021/10/10 09:37:10;;;;;;;20.10;9.50;;;9.40;54.60;;;;;;5093479;28;20016;-73
2021/10/10 09:39:45;;;;;;;17.48;10.02;;;9.50;53.40;;;;;;5080571;28;20111;-73
2021/10/10 09:42:29;;;;;;;19.17;9.35;;;9.60;52.80;;;;;;5093952;28;20056;-73
2021/10/10 09:44:55;;;;;;;14.32;8.60;;;9.80;53.10;;;;;;5079574;28;20033;-74
2021/10/10 09:47:20;;;;;;;22.35;10.15;;;9.80;53.20;;;;;;5082018;28;20027;-75
2021/10/10 09:49:46;;;;;;;15.93;8.82;;;9.90;52.00;;;;;;5077634;28;20391;-75
2021/10/10 09:52:14;;;;;;;21.73;8.15;;;9.90;51.20;;;;;;5084336;28;20385;-79
2021/10/10 09:54:54;;;;;;;17.77;9.07;;;9.80;49.90;;;;;;5081624;28;20455;-78
2021/10/10 09:57:21;;;;;;;16.30;8.80;;;9.90;50.60;;;;;;5085827;28;20027;-79
2021/10/10 09:59:48;;;;;;;17.27;9.85;;;10.00;51.20;;;;;;5079250;28;20047;-77
2021/10/10 10:02:14;;;;;;;15.68;7.75;;;10.10;50.90;;;;;;5075637;28;20065;-81
2021/10/10 10:04:45;;;;;;;16.50;7.95;;;10.20;50.30;;;;;;5076248;28;20373;-79
2021/10/10 10:07:13;;;;;;;16.35;8.38;;;10.30;50.90;;;;;;5076443;28;20452;-80
2021/10/10 10:09:39;;;;;;;16.80;8.25;;;10.40;50.70;;;;;;5075728;28;20450;-79
2021/10/10 10:12:06;;;;;;;18.92;8.02;;;10.40;49.70;;;;;;5077644;28;20107;-80
2021/10/10 10:14:32;;;;;;;14.73;7.45;;;10.30;47.70;;;;;;5072853;28;20502;-79
2021/10/10 10:17:00;;;;;;;12.95;6.90;;;10.20;48.30;;;;;;5074319;28;20033;-79
2021/10/10 10:19:28;;;;;;;21.15;7.97;;;10.20;46.90;;;;;;5073094;28;20112;-79
2021/10/10 10:21:55;;;;;;;16.13;8.45;;;10.30;48.10;;;;;;5073061;28;20560;-79
2021/10/10 10:24:23;;;;;;;15.90;7.07;;;10.40;48.00;;;;;;5072159;28;20126;-79
2021/10/10 10:26:49;;;;;;;15.73;8.30;;;10.50;47.40;;;;;;5074011;28;20025;-79
2021/10/10 10:29:18;;;;;;;11.32;7.47;;;10.70;48.40;;;;;;5075400;28;20024;-79
2021/10/10 10:31:46;;;;;;;11.02;6.93;;;10.70;47.90;;;;;;5074377;28;20024;-79
2021/10/10 10:34:30;;;;;;;14.13;6.90;;;10.60;46.80;;;;;;5076275;28;20080;-79
2021/10/10 10:37:04;;;;;;;11.02;7.25;;;10.70;47.10;;;;;;5072419;28;20142;-79
2021/10/10 10:39:41;;;;;;;11.43;6.65;;;10.70;47.10;;;;;;5071445;28;20059;-79
2021/10/10 10:42:33;;;;;;;14.88;6.75;;;10.80;46.90;;;;;;5073801;28;20016;-79
2021/10/10 10:44:59;;;;;;;11.20;6.68;;;10.80;46.10;;;;;;5067880;28;20720;-79
2021/10/10 10:47:37;;;;;;;12.57;6.03;;;10.80;45.90;;;;;;5070884;28;20053;-79
2021/10/10 10:50:12;;;;;;;10.07;5.55;;;10.90;45.10;;;;;;5073359;28;20154;-79
2021/10/10 10:52:41;;;;;;;11.90;5.40;;;10.90;44.90;;;;;;5076966;28;20111;-79
2021/10/10 10:55:22;;;;;;;10.02;6.13;;;10.80;44.10;;;;;;5074276;28;20032;-79
2021/10/10 10:57:57;;;;;;;11.95;5.85;;;10.70;43.90;;;;;;5071061;28;20511;-79
2021/10/10 11:00:36;;;;;;;12.85;6.65;;;10.80;44.80;;;;;;5070801;28;20024;-79
2021/10/10 11:03:18;;;;;;;15.38;6.72;;;10.90;45.20;;;;;;5073645;28;20099;-78
2021/10/10 11:05:55;;;;;;;19.30;6.57;;;10.90;45.30;;;;;;5070388;28;20050;-79
2021/10/10 11:08:27;;;;;;;11.23;5.70;;;10.70;44.80;;;;;;5074224;28;20024;-79
2021/10/10 11:11:13;;;;;;;10.15;5.85;;;10.60;44.60;;;;;;5075787;28;20546;-79
2021/10/10 11:13:55;;;;;;;10.95;6.30;;;10.50;45.30;;;;;;5073324;28;20032;-79
2021/10/10 11:16:29;;;;;;;13.52;6.15;;;10.50;45.20;;;;;;5073770;28;20040;-79
2021/10/10 11:19:02;;;;;;;13.25;6.70;;;10.50;45.20;;;;;;5080282;28;20031;-79
2021/10/10 11:21:36;;;;;;;12.43;6.63;;;10.50;44.70;;;;;;5077999;28;20033;-81
2021/10/10 11:24:07;;;;;;;8.52;5.88;;;10.60;44.90;;;;;;5079505;28;20028;-80
2021/10/10 11:26:36;;;;;;;8.73;5.57;;;10.80;45.50;;;;;;5069289;28;20028;-79
2021/10/10 11:29:07;;;;;;;10.65;5.30;;;10.90;45.30;;;;;;5074529;28;20016;-79
2021/10/10 11:31:34;;;;;;;9.65;5.50;;;11.00;45.70;;;;;;5077244;28;20016;-79
2021/10/10 11:34:11;;;;;;;10.82;5.35;;;11.10;45.50;;;;;;5079756;28;20477;-80
2021/10/10 11:36:41;;;;;;;14.43;5.38;;;11.00;44.00;;;;;;5081286;28;20027;-79
2021/10/10 11:39:14;;;;;;;8.60;5.70;;;10.90;43.50;;;;;;5077668;28;20043;-79
2021/10/10 11:41:45;;;;;;;14.43;5.63;;;10.90;44.50;;;;;;5079774;28;20074;-79
2021/10/10 11:44:15;;;;;;;11.77;5.65;;;10.80;44.40;;;;;;5073430;28;20052;-79
2021/10/10 11:46:47;;;;;;;11.75;5.45;;;10.70;44.60;;;;;;5071216;28;20507;-80
2021/10/10 11:49:22;;;;;;;12.93;5.40;;;10.80;46.10;;;;;;5072697;28;20413;-80
2021/10/10 11:51:51;;;;;;;12.68;5.57;;;10.70;45.20;;;;;;5074393;28;20060;-80
2021/10/10 11:54:32;;;;;;;10.35;5.20;;;10.70;44.50;;;;;;5080014;28;20390;-80
2021/10/10 11:56:59;;;;;;;10.90;5.10;;;10.80;44.60;;;;;;5073611;28;20233;-80
2021/10/10 11:59:26;;;;;;;9.30;4.22;;;10.90;44.90;;;;;;5075824;28;20012;-80
2021/10/10 12:01:54;;;;;;;8.35;5.30;;;11.10;44.50;;;;;;5071714;28;20024;-80
2021/10/10 12:04:20;;;;;;;12.43;5.15;;;11.10;43.90;;;;;;5077443;28;20024;-79
2021/10/10 12:06:50;;;;;;;8.27;5.10;;;11.10;44.50;;;;;;5071278;28;20120;-79
2021/10/10 12:09:16;;;;;;;9.80;6.13;;;11.30;43.90;;;;;;5075864;28;20020;-80
2021/10/10 12:12:07;;;;;;;8.05;5.15;;;11.40;43.20;;;;;;5073589;28;20023;-80
2021/10/10 12:14:41;;;;;;;10.90;5.53;;;11.50;43.10;;;;;;5079074;28;20036;-79
2021/10/10 12:17:06;;;;;;;8.63;4.35;;;11.50;41.30;;;;;;5077542;28;20012;-79
2021/10/10 12:19:43;;;;;;;8.77;4.47;;;11.50;41.30;;;;;;5077308;28;20016;-80
2021/10/10 12:22:09;;;;;;;9.55;4.70;;;11.40;41.10;;;;;;5076667;28;20013;-80
2021/10/10 12:24:46;;;;;;;9.18;4.88;;;11.50;42.10;;;;;;5076284;28;20025;-79
2021/10/10 12:27:22;;;;;;;9.63;4.30;;;11.50;42.50;;;;;;5078151;28;20119;-79
2021/10/10 12:29:48;;;;;;;7.75;4.45;;;11.40;42.50;;;;;;5080687;28;20114;-80
2021/10/10 12:32:24;;;;;;;9.82;4.70;;;11.50;43.20;;;;;;5083944;28;20012;-80
2021/10/10 12:35:04;;;;;;;8.68;4.57;;;11.40;42.70;;;;;;5079669;28;20032;-80
2021/10/10 12:37:31;;;;;;;7.80;4.47;;;11.40;42.30;;;;;;5079937;28;20366;-80
2021/10/10 12:39:56;;;;;;;10.02;5.00;;;11.40;42.60;;;;;;5082698;28;20064;-80
2021/10/10 12:42:22;;;;;;;8.80;5.15;;;11.40;42.80;;;;;;5073504;28;20375;-79
2021/10/10 12:45:09;;;;;;;8.63;4.68;;;11.50;43.70;;;;;;5074419;28;20079;-80